Terminal Aerodrome Forecast
Issued by NWS

Home | Current Version | Previous Version | Text Only | Print | Product List | Glossary On
Versions: 1 2 3 4 5 6 7 8 9 10 11 12 13 14 15
000
FTUS46 KPDT 252320
TAFALW
TAF
KALW 252320Z 2600/2624 23009KT P6SM SCT060 BKN100
     FM260300 15005KT P6SM FEW080 SCT150
     FM261400 16005KT P6SM SCT070 BKN150
     FM262000 18006KT 6SM -SHRA SCT025 OVC040=

USA.gov is the U.S. government's official web portal to all federal, state and local government web resources and services.